Time;durP1;ratioP1;P1;durP2;ratioP2;P2;SDS_P1;SDS_P2;PMS_P1;PMS_P2;Temp;Humidity;BMP_temperature;BMP_pressure;BME280_temperature;BME280_humidity;BME280_pressure;Samples;Min_cycle;Max_cycle;Signal;HPM_P1;HPM_P2
2024/01/15 00:02:00;;;;;;;4.70;3.55;;;;;;;;;;4995208;28;20214;-81
2024/01/15 00:04:29;;;;;;;4.55;4.13;;;;;;;;;;4994979;28;20589;-79
2024/01/15 00:06:57;;;;;;;5.45;4.55;;;;;;;;;;4995214;28;20294;-80
2024/01/15 00:09:24;;;;;;;4.82;4.22;;;;;;;;;;4995450;28;20282;-79
2024/01/15 00:11:52;;;;;;;6.47;4.75;;;;;;;;;;4994307;28;20686;-79
2024/01/15 00:14:20;;;;;;;6.53;5.35;;;;;;;;;;4994994;28;20288;-79
2024/01/15 00:16:49;;;;;;;4.90;4.15;;;;;;;;;;4995130;28;20204;-78
2024/01/15 00:19:16;;;;;;;4.30;3.85;;;;;;;;;;4994709;28;20208;-80
2024/01/15 00:21:45;;;;;;;4.70;4.20;;;;;;;;;;4994894;28;20210;-80
2024/01/15 00:24:13;;;;;;;6.18;4.63;;;;;;;;;;4994418;28;20233;-78
2024/01/15 00:26:40;;;;;;;3.92;3.63;;;;;;;;;;4994746;28;20239;-80
2024/01/15 00:29:08;;;;;;;6.55;5.20;;;;;;;;;;4994790;28;20654;-79
2024/01/15 00:31:36;;;;;;;4.50;3.97;;;;;;;;;;4995175;28;20290;-79
2024/01/15 00:34:03;;;;;;;3.53;3.22;;;;;;;;;;4995315;28;20306;-80
2024/01/15 00:36:31;;;;;;;5.03;4.53;;;;;;;;;;4994790;28;20203;-79
2024/01/15 00:39:00;;;;;;;5.03;4.53;;;;;;;;;;4994404;28;20666;-80
2024/01/15 00:41:28;;;;;;;4.95;4.45;;;;;;;;;;4994951;28;20208;-79
2024/01/15 00:43:55;;;;;;;6.25;5.07;;;;;;;;;;4994891;28;20231;-78
2024/01/15 00:46:23;;;;;;;3.60;3.30;;;;;;;;;;4994944;28;20213;-80
2024/01/15 00:48:50;;;;;;;3.92;3.30;;;;;;;;;;4994561;28;20200;-80
2024/01/15 00:51:18;;;;;;;4.63;3.72;;;;;;;;;;4995011;28;20612;-80
2024/01/15 00:53:45;;;;;;;6.97;4.60;;;;;;;;;;4994634;28;20206;-80
2024/01/15 00:56:14;;;;;;;6.05;3.90;;;;;;;;;;4995055;28;20214;-80
2024/01/15 00:58:41;;;;;;;4.50;4.00;;;;;;;;;;4994991;28;20323;-79
2024/01/15 01:01:09;;;;;;;3.47;2.85;;;;;;;;;;4994420;28;20294;-80
2024/01/15 01:03:36;;;;;;;3.88;3.58;;;;;;;;;;4994916;28;20318;-80
2024/01/15 01:06:04;;;;;;;3.83;3.28;;;;;;;;;;4998252;28;20223;-79
2024/01/15 01:08:31;;;;;;;4.43;4.03;;;;;;;;;;4998339;28;20200;-80
2024/01/15 01:10:59;;;;;;;3.65;3.35;;;;;;;;;;4998110;28;20591;-79
2024/01/15 01:13:27;;;;;;;2.50;2.30;;;;;;;;;;4998029;28;20196;-80
2024/01/15 01:15:55;;;;;;;3.50;3.20;;;;;;;;;;4997963;28;20224;-80
2024/01/15 01:18:22;;;;;;;3.38;3.13;;;;;;;;;;4997917;28;20306;-79
2024/01/15 01:20:50;;;;;;;3.03;2.65;;;;;;;;;;4998417;28;20203;-80
2024/01/15 01:23:17;;;;;;;5.35;3.63;;;;;;;;;;4997648;28;20223;-78
2024/01/15 01:25:45;;;;;;;3.05;2.83;;;;;;;;;;4997347;28;20235;-78
2024/01/15 01:28:12;;;;;;;3.30;3.10;;;;;;;;;;4997752;28;20239;-79
2024/01/15 01:30:41;;;;;;;3.03;2.25;;;;;;;;;;4998285;28;20659;-80
2024/01/15 01:33:11;;;;;;;2.35;2.17;;;;;;;;;;4997831;28;20207;-79
2024/01/15 01:35:38;;;;;;;3.28;2.85;;;;;;;;;;4983074;28;20240;-80
2024/01/15 01:38:05;;;;;;;1.98;1.88;;;;;;;;;;4984375;28;20205;-81
2024/01/15 01:40:33;;;;;;;2.65;2.45;;;;;;;;;;4980072;28;20204;-79
2024/01/15 01:43:00;;;;;;;3.05;2.85;;;;;;;;;;4985736;28;20570;-79
2024/01/15 01:45:28;;;;;;;2.53;2.33;;;;;;;;;;4986680;28;20250;-80
2024/01/15 01:47:57;;;;;;;3.30;3.00;;;;;;;;;;4980179;28;20552;-80
2024/01/15 01:50:24;;;;;;;2.30;2.10;;;;;;;;;;4980424;28;20214;-79
2024/01/15 01:52:52;;;;;;;2.50;2.33;;;;;;;;;;4975179;28;20292;-79
2024/01/15 01:55:21;;;;;;;3.17;2.88;;;;;;;;;;4980766;28;20347;-80
2024/01/15 01:57:49;;;;;;;2.17;2.05;;;;;;;;;;4986169;28;20244;-81
2024/01/15 02:00:16;;;;;;;3.13;2.63;;;;;;;;;;4980211;28;20214;-80
2024/01/15 02:02:44;;;;;;;3.05;2.85;;;;;;;;;;4985901;28;20816;-80
2024/01/15 02:05:15;;;;;;;3.30;3.00;;;;;;;;;;4985706;28;20231;-80
2024/01/15 02:07:43;;;;;;;3.20;2.90;;;;;;;;;;4982758;28;20535;-80
2024/01/15 02:10:11;;;;;;;3.28;2.85;;;;;;;;;;4989078;28;20220;-80
2024/01/15 02:12:38;;;;;;;3.00;2.70;;;;;;;;;;4984509;28;20204;-79
2024/01/15 02:15:07;;;;;;;3.08;2.88;;;;;;;;;;4984817;28;20216;-80
2024/01/15 02:17:34;;;;;;;2.97;2.75;;;;;;;;;;4977972;28;20205;-79
2024/01/15 02:20:02;;;;;;;2.63;2.42;;;;;;;;;;4980788;28;20273;-79
2024/01/15 02:22:31;;;;;;;2.63;2.28;;;;;;;;;;4991055;28;20271;-78
2024/01/15 02:24:59;;;;;;;2.97;2.78;;;;;;;;;;4984165;28;20295;-79
2024/01/15 02:27:27;;;;;;;3.17;2.65;;;;;;;;;;4978394;28;20304;-79
2024/01/15 02:29:54;;;;;;;4.93;3.50;;;;;;;;;;4978941;28;20204;-80
2024/01/15 02:32:22;;;;;;;2.92;2.63;;;;;;;;;;4983547;28;20664;-80
2024/01/15 02:34:49;;;;;;;2.60;2.40;;;;;;;;;;4982720;28;20218;-79
2024/01/15 02:37:17;;;;;;;4.38;3.50;;;;;;;;;;4981939;28;20211;-78
2024/01/15 02:39:44;;;;;;;3.05;2.70;;;;;;;;;;4986896;28;20208;-78
2024/01/15 02:42:13;;;;;;;5.28;4.03;;;;;;;;;;4987131;28;20271;-80
2024/01/15 02:44:40;;;;;;;4.55;4.03;;;;;;;;;;4979243;28;20582;-80
2024/01/15 02:47:08;;;;;;;5.30;3.67;;;;;;;;;;4990784;28;20210;-80
2024/01/15 02:49:35;;;;;;;4.30;3.33;;;;;;;;;;4984975;28;20303;-80
2024/01/15 02:52:03;;;;;;;4.18;2.90;;;;;;;;;;4993835;28;20599;-80
2024/01/15 02:54:30;;;;;;;3.72;2.83;;;;;;;;;;4984964;28;20303;-79
2024/01/15 02:56:58;;;;;;;3.92;3.03;;;;;;;;;;4988586;28;20208;-79
2024/01/15 02:59:26;;;;;;;5.07;3.17;;;;;;;;;;4977785;28;20212;-79
2024/01/15 03:01:54;;;;;;;7.97;3.60;;;;;;;;;;4978926;28;20638;-79
2024/01/15 03:04:21;;;;;;;4.85;3.50;;;;;;;;;;4983295;28;20242;-80
2024/01/15 03:06:49;;;;;;;5.18;4.00;;;;;;;;;;4984089;28;20570;-80
2024/01/15 03:09:16;;;;;;;5.70;3.63;;;;;;;;;;4977104;28;20204;-79
2024/01/15 03:11:44;;;;;;;3.30;3.00;;;;;;;;;;4977019;28;20196;-80
2024/01/15 03:14:11;;;;;;;3.05;2.75;;;;;;;;;;4984186;28;20632;-79
2024/01/15 03:16:40;;;;;;;9.18;4.63;;;;;;;;;;4974153;28;20652;-80
2024/01/15 03:19:07;;;;;;;4.68;3.45;;;;;;;;;;4977719;28;20273;-80
2024/01/15 03:21:35;;;;;;;4.45;4.05;;;;;;;;;;4977758;28;20208;-79
2024/01/15 03:24:02;;;;;;;4.03;3.22;;;;;;;;;;4978466;28;20229;-80
2024/01/15 03:26:29;;;;;;;3.33;3.03;;;;;;;;;;4977655;28;20224;-78
2024/01/15 03:28:57;;;;;;;3.45;3.13;;;;;;;;;;4982392;28;20302;-80
2024/01/15 03:31:24;;;;;;;5.03;3.20;;;;;;;;;;4980362;28;20666;-79
2024/01/15 03:33:53;;;;;;;4.10;3.67;;;;;;;;;;4969541;28;20231;-79
2024/01/15 03:36:21;;;;;;;3.45;3.13;;;;;;;;;;4977117;28;20208;-79
2024/01/15 03:38:48;;;;;;;8.27;3.90;;;;;;;;;;4983210;28;20574;-78
2024/01/15 03:41:15;;;;;;;5.95;3.90;;;;;;;;;;4977923;28;20287;-79
2024/01/15 03:43:43;;;;;;;4.07;3.25;;;;;;;;;;4976238;28;20651;-80
2024/01/15 03:46:11;;;;;;;4.10;3.20;;;;;;;;;;4973471;28;20786;-79
2024/01/15 03:48:38;;;;;;;3.13;2.83;;;;;;;;;;4976420;28;20208;-79
2024/01/15 03:51:07;;;;;;;7.15;3.75;;;;;;;;;;4976314;28;20215;-80
2024/01/15 03:53:34;;;;;;;5.93;3.53;;;;;;;;;;4974938;28;20295;-80
2024/01/15 03:56:04;;;;;;;3.72;2.95;;;;;;;;;;4977647;28;20220;-79
2024/01/15 03:58:31;;;;;;;6.55;2.50;;;;;;;;;;4977923;28;20702;-79
2024/01/15 04:00:59;;;;;;;3.72;3.05;;;;;;;;;;4977321;28;20208;-79
2024/01/15 04:03:26;;;;;;;5.03;3.00;;;;;;;;;;4977559;28;20216;-79
2024/01/15 04:05:54;;;;;;;3.38;3.05;;;;;;;;;;4977201;28;20228;-80
2024/01/15 04:08:22;;;;;;;5.53;3.47;;;;;;;;;;4977829;28;20204;-79
2024/01/15 04:10:50;;;;;;;4.43;3.63;;;;;;;;;;4977162;28;20204;-79
2024/01/15 04:13:18;;;;;;;3.53;3.20;;;;;;;;;;4977074;28;20208;-79
2024/01/15 04:15:45;;;;;;;9.48;3.05;;;;;;;;;;4977369;28;20223;-79
2024/01/15 04:18:12;;;;;;;4.15;3.50;;;;;;;;;;4977411;28;20299;-78
2024/01/15 04:20:40;;;;;;;4.30;2.40;;;;;;;;;;4977301;28;20211;-79
2024/01/15 04:23:07;;;;;;;3.13;2.80;;;;;;;;;;4977616;28;20208;-78
2024/01/15 04:25:36;;;;;;;2.42;1.90;;;;;;;;;;4976876;28;20232;-78
2024/01/15 04:28:04;;;;;;;3.72;2.83;;;;;;;;;;4977754;28;20211;-79
2024/01/15 04:30:31;;;;;;;4.97;2.83;;;;;;;;;;4977611;28;20611;-78
2024/01/15 04:32:59;;;;;;;2.92;2.40;;;;;;;;;;4977117;28;20211;-79
2024/01/15 04:35:26;;;;;;;4.00;2.58;;;;;;;;;;4977385;28;20235;-78
2024/01/15 04:37:54;;;;;;;4.70;2.78;;;;;;;;;;4977224;28;20204;-77
2024/01/15 04:40:21;;;;;;;4.95;3.45;;;;;;;;;;4979691;28;20210;-79
2024/01/15 04:42:50;;;;;;;2.60;2.40;;;;;;;;;;4981030;28;20200;-79
2024/01/15 04:45:18;;;;;;;4.55;3.10;;;;;;;;;;4981228;28;20255;-79
2024/01/15 04:47:45;;;;;;;3.22;2.70;;;;;;;;;;4980557;28;20204;-79
2024/01/15 04:50:13;;;;;;;2.38;2.15;;;;;;;;;;4981269;28;20295;-78
2024/01/15 04:52:39;;;;;;;3.25;2.67;;;;;;;;;;4981093;28;20204;-79
2024/01/15 04:55:07;;;;;;;6.40;2.75;;;;;;;;;;4980124;28;20228;-78
2024/01/15 04:57:34;;;;;;;3.63;2.20;;;;;;;;;;4980513;28;20204;-77
2024/01/15 05:00:04;;;;;;;5.25;3.72;;;;;;;;;;4980144;28;20215;-79
2024/01/15 05:02:32;;;;;;;2.13;1.92;;;;;;;;;;4980520;28;20192;-79
2024/01/15 05:04:59;;;;;;;3.83;3.00;;;;;;;;;;4980516;28;20594;-79
2024/01/15 05:07:27;;;;;;;2.88;2.47;;;;;;;;;;4980515;28;20228;-79
2024/01/15 05:09:54;;;;;;;4.63;2.42;;;;;;;;;;4980315;28;20276;-80
2024/01/15 05:12:22;;;;;;;3.70;2.03;;;;;;;;;;4980595;28;20686;-79
2024/01/15 05:14:49;;;;;;;2.97;2.45;;;;;;;;;;4980223;28;20235;-78
2024/01/15 05:17:18;;;;;;;4.05;2.63;;;;;;;;;;4980479;28;20200;-79
2024/01/15 05:19:46;;;;;;;4.35;2.63;;;;;;;;;;4981481;28;20209;-78
2024/01/15 05:22:13;;;;;;;4.65;2.83;;;;;;;;;;4980188;28;20207;-79
2024/01/15 05:24:40;;;;;;;2.00;1.85;;;;;;;;;;4979745;28;20232;-78
2024/01/15 05:27:08;;;;;;;5.60;2.92;;;;;;;;;;4980400;28;20251;-79
2024/01/15 05:29:35;;;;;;;4.85;2.50;;;;;;;;;;4980562;28;20643;-78
2024/01/15 05:32:03;;;;;;;3.55;2.97;;;;;;;;;;4980306;28;20207;-80
2024/01/15 05:34:31;;;;;;;7.00;2.78;;;;;;;;;;4980419;28;20311;-79
2024/01/15 05:36:59;;;;;;;5.38;3.05;;;;;;;;;;4980162;28;20719;-79
2024/01/15 05:39:26;;;;;;;4.18;2.42;;;;;;;;;;4979753;28;20299;-79
2024/01/15 05:41:54;;;;;;;8.10;2.75;;;;;;;;;;4980735;28;20210;-78
2024/01/15 05:44:21;;;;;;;4.32;3.03;;;;;;;;;;4979914;28;20311;-79
2024/01/15 05:46:49;;;;;;;7.20;3.45;;;;;;;;;;4979954;28;20231;-79
2024/01/15 05:49:16;;;;;;;8.15;2.67;;;;;;;;;;4980524;28;20200;-79
2024/01/15 05:51:45;;;;;;;1.90;1.73;;;;;;;;;;4980135;28;20210;-79
2024/01/15 05:54:12;;;;;;;2.28;2.03;;;;;;;;;;4980203;28;20312;-77
2024/01/15 05:56:40;;;;;;;4.55;2.72;;;;;;;;;;4979887;28;20203;-78
2024/01/15 05:59:07;;;;;;;2.83;2.10;;;;;;;;;;4980047;28;20271;-79
2024/01/15 06:01:34;;;;;;;3.63;2.92;;;;;;;;;;4980170;28;20200;-79
2024/01/15 06:04:02;;;;;;;4.10;2.60;;;;;;;;;;4979323;28;20246;-77
2024/01/15 06:06:29;;;;;;;9.15;2.95;;;;;;;;;;4979058;28;20250;-79
2024/01/15 06:09:05;;;;;;;4.68;2.65;;;;;;;;;;4979714;28;20204;-79
2024/01/15 06:11:32;;;;;;;4.50;2.15;;;;;;;;;;4979574;28;20185;-78
2024/01/15 06:14:00;;;;;;;3.45;2.67;;;;;;;;;;4979449;28;20205;-78
2024/01/15 06:16:28;;;;;;;4.00;2.45;;;;;;;;;;4979771;28;20200;-78
2024/01/15 06:18:56;;;;;;;5.32;2.47;;;;;;;;;;4979722;28;20208;-79
2024/01/15 06:21:23;;;;;;;3.20;2.28;;;;;;;;;;4979834;28;20296;-79
2024/01/15 06:23:51;;;;;;;3.03;2.13;;;;;;;;;;4979619;28;20208;-79
2024/01/15 06:26:20;;;;;;;3.97;3.38;;;;;;;;;;4979608;28;20228;-78
2024/01/15 06:28:47;;;;;;;3.00;2.40;;;;;;;;;;4978356;28;20200;-79
2024/01/15 06:31:14;;;;;;;2.67;2.25;;;;;;;;;;4978993;28;20295;-78
2024/01/15 06:33:42;;;;;;;4.10;2.58;;;;;;;;;;4979272;28;20636;-79
2024/01/15 06:36:10;;;;;;;2.70;1.95;;;;;;;;;;4978987;28;20291;-78
2024/01/15 06:38:38;;;;;;;3.55;2.38;;;;;;;;;;4978857;28;20227;-80
2024/01/15 06:41:05;;;;;;;2.97;1.92;;;;;;;;;;4979009;28;20723;-79
2024/01/15 06:43:34;;;;;;;2.92;2.65;;;;;;;;;;4979078;28;20203;-79
2024/01/15 06:46:01;;;;;;;4.70;2.67;;;;;;;;;;4979415;28;20227;-79
2024/01/15 06:48:29;;;;;;;3.58;2.45;;;;;;;;;;4978837;28;20234;-78
2024/01/15 06:50:56;;;;;;;1.90;1.63;;;;;;;;;;4979027;28;20208;-79
2024/01/15 06:53:24;;;;;;;2.30;2.00;;;;;;;;;;4979398;28;20682;-77
2024/01/15 06:55:52;;;;;;;6.47;2.38;;;;;;;;;;4978204;28;20231;-79
2024/01/15 06:58:19;;;;;;;3.42;2.65;;;;;;;;;;4978849;28;20208;-78
2024/01/15 07:00:48;;;;;;;2.55;2.35;;;;;;;;;;4979009;28;20200;-79
2024/01/15 07:03:15;;;;;;;3.58;2.13;;;;;;;;;;4978371;28;20200;-79
2024/01/15 07:05:43;;;;;;;3.15;2.15;;;;;;;;;;4978995;28;20230;-78
2024/01/15 07:08:10;;;;;;;4.88;2.60;;;;;;;;;;4978541;28;20674;-78
2024/01/15 07:10:38;;;;;;;2.50;1.90;;;;;;;;;;4978607;28;20268;-77
2024/01/15 07:13:05;;;;;;;3.17;2.30;;;;;;;;;;4978278;28;20208;-78
2024/01/15 07:15:33;;;;;;;2.55;1.85;;;;;;;;;;4978015;28;20311;-80
2024/01/15 07:18:02;;;;;;;2.60;2.05;;;;;;;;;;4980716;28;20213;-81
2024/01/15 07:20:29;;;;;;;3.42;2.65;;;;;;;;;;4986824;28;20279;-80
2024/01/15 07:22:57;;;;;;;4.50;2.85;;;;;;;;;;4985612;28;20301;-82
2024/01/15 07:25:25;;;;;;;4.40;2.42;;;;;;;;;;4988064;28;20699;-82
2024/01/15 07:27:54;;;;;;;4.68;2.65;;;;;;;;;;4982148;28;20702;-82
2024/01/15 07:30:22;;;;;;;3.65;2.22;;;;;;;;;;4986603;28;20206;-80
2024/01/15 07:32:49;;;;;;;3.08;2.42;;;;;;;;;;4983368;28;20213;-82
2024/01/15 07:35:18;;;;;;;3.70;2.75;;;;;;;;;;4992614;28;20281;-83
2024/01/15 07:37:46;;;;;;;2.58;2.38;;;;;;;;;;4987392;28;20236;-82
2024/01/15 07:40:13;;;;;;;2.78;2.10;;;;;;;;;;4984927;28;20299;-82
2024/01/15 07:42:42;;;;;;;3.08;2.30;;;;;;;;;;4984244;28;20208;-82
2024/01/15 07:45:10;;;;;;;4.22;2.85;;;;;;;;;;4980657;28;20606;-79
2024/01/15 07:47:38;;;;;;;3.10;2.22;;;;;;;;;;4976389;28;20228;-80
2024/01/15 07:50:06;;;;;;;4.00;2.65;;;;;;;;;;4975713;28;20207;-79
2024/01/15 07:52:34;;;;;;;3.90;2.70;;;;;;;;;;4976291;28;20728;-78
2024/01/15 07:55:03;;;;;;;3.80;2.58;;;;;;;;;;4976291;28;20667;-80
2024/01/15 07:57:31;;;;;;;3.20;2.88;;;;;;;;;;4976529;28;20287;-80
2024/01/15 07:59:58;;;;;;;3.08;2.72;;;;;;;;;;4976358;28;20579;-79
2024/01/15 08:02:26;;;;;;;2.90;1.90;;;;;;;;;;4975863;28;20272;-78
2024/01/15 08:04:53;;;;;;;2.88;2.05;;;;;;;;;;4977997;28;20216;-80
2024/01/15 08:07:20;;;;;;;2.55;2.10;;;;;;;;;;4976501;28;20231;-79
2024/01/15 08:09:49;;;;;;;2.38;2.05;;;;;;;;;;4972784;28;20206;-79
2024/01/15 08:12:17;;;;;;;3.08;2.20;;;;;;;;;;4986321;28;20218;-80
2024/01/15 08:14:45;;;;;;;3.13;2.08;;;;;;;;;;4978107;28;20224;-78
2024/01/15 08:17:12;;;;;;;3.22;2.92;;;;;;;;;;4980643;28;20208;-79
2024/01/15 08:19:41;;;;;;;2.55;2.05;;;;;;;;;;4986184;28;20207;-79
2024/01/15 08:22:08;;;;;;;4.00;2.83;;;;;;;;;;4985944;28;20576;-78
2024/01/15 08:24:36;;;;;;;5.30;3.65;;;;;;;;;;4980201;28;20286;-78
2024/01/15 08:27:05;;;;;;;3.03;2.35;;;;;;;;;;4988115;28;20204;-78
2024/01/15 08:29:34;;;;;;;4.07;2.28;;;;;;;;;;4980389;28;20695;-80
2024/01/15 08:32:02;;;;;;;2.97;2.17;;;;;;;;;;4980616;28;20208;-80
2024/01/15 08:34:29;;;;;;;2.20;1.88;;;;;;;;;;4978994;28;20243;-79
2024/01/15 08:36:57;;;;;;;4.65;2.70;;;;;;;;;;4980225;28;20258;-80
2024/01/15 08:39:24;;;;;;;2.38;2.17;;;;;;;;;;4979662;28;20204;-81
2024/01/15 08:41:52;;;;;;;3.00;2.70;;;;;;;;;;4983992;28;20212;-81
2024/01/15 08:44:20;;;;;;;2.58;2.33;;;;;;;;;;4982328;28;20315;-80
2024/01/15 08:46:48;;;;;;;2.67;2.33;;;;;;;;;;4980547;28;20204;-80
2024/01/15 08:49:15;;;;;;;3.67;2.30;;;;;;;;;;4980283;28;20228;-80
2024/01/15 08:51:43;;;;;;;3.42;2.95;;;;;;;;;;4981691;28;20204;-80
2024/01/15 08:54:10;;;;;;;4.68;3.17;;;;;;;;;;4981571;28;20224;-80
2024/01/15 08:56:38;;;;;;;3.22;2.92;;;;;;;;;;4979927;28;20291;-80
2024/01/15 08:59:05;;;;;;;3.80;2.67;;;;;;;;;;4979700;28;20328;-80
2024/01/15 09:01:34;;;;;;;2.78;2.08;;;;;;;;;;4980031;28;20200;-80
2024/01/15 09:04:01;;;;;;;3.80;2.42;;;;;;;;;;4984377;28;20234;-80
2024/01/15 09:06:29;;;;;;;3.30;2.00;;;;;;;;;;4979740;28;20208;-81
2024/01/15 09:08:56;;;;;;;2.92;2.33;;;;;;;;;;4979438;28;20340;-80
2024/01/15 09:11:24;;;;;;;2.97;2.45;;;;;;;;;;4981386;28;20204;-79
2024/01/15 09:13:51;;;;;;;2.15;1.95;;;;;;;;;;4973946;28;20220;-80
2024/01/15 09:16:19;;;;;;;1.98;1.80;;;;;;;;;;4979736;28;20204;-80
2024/01/15 09:18:48;;;;;;;3.97;2.78;;;;;;;;;;4981708;28;20566;-79
2024/01/15 09:21:15;;;;;;;3.15;2.50;;;;;;;;;;4985347;28;20212;-79
2024/01/15 09:23:43;;;;;;;3.13;2.10;;;;;;;;;;4979378;28;20215;-79
2024/01/15 09:26:10;;;;;;;2.30;2.10;;;;;;;;;;4979638;28;20300;-82
2024/01/15 09:28:38;;;;;;;2.60;2.40;;;;;;;;;;4976088;28;20300;-80
2024/01/15 09:31:05;;;;;;;3.28;2.95;;;;;;;;;;4978832;28;20583;-77
2024/01/15 09:33:33;;;;;;;3.13;2.00;;;;;;;;;;4982160;28;20212;-78
2024/01/15 09:36:05;;;;;;;2.70;2.08;;;;;;;;;;4979866;28;20311;-81
2024/01/15 09:38:33;;;;;;;4.03;2.22;;;;;;;;;;4979776;28;20251;-81
2024/01/15 09:41:00;;;;;;;2.35;2.03;;;;;;;;;;4980142;28;20207;-81
2024/01/15 09:43:28;;;;;;;2.30;2.10;;;;;;;;;;4978776;28;20291;-81
2024/01/15 09:45:55;;;;;;;3.08;2.30;;;;;;;;;;4979686;28;20254;-79
2024/01/15 09:48:23;;;;;;;2.15;2.00;;;;;;;;;;4979508;28;20231;-81
2024/01/15 09:50:51;;;;;;;2.85;2.38;;;;;;;;;;4973785;28;20208;-81
2024/01/15 09:53:20;;;;;;;2.47;1.80;;;;;;;;;;4979474;28;20287;-82
2024/01/15 09:55:50;;;;;;;2.83;2.58;;;;;;;;;;4979467;28;20238;-81
2024/01/15 09:58:20;;;;;;;1.50;1.40;;;;;;;;;;4979481;28;20215;-80
2024/01/15 10:00:50;;;;;;;3.30;2.05;;;;;;;;;;4979368;28;20208;-80
2024/01/15 10:03:18;;;;;;;3.80;2.50;;;;;;;;;;4985939;28;20211;-80
2024/01/15 10:05:45;;;;;;;3.42;2.22;;;;;;;;;;4981506;28;20221;-81
2024/01/15 10:08:13;;;;;;;4.70;2.22;;;;;;;;;;4981819;28;20204;-80
2024/01/15 10:10:43;;;;;;;3.05;2.45;;;;;;;;;;4986512;28;20279;-80
2024/01/15 10:13:10;;;;;;;2.65;2.45;;;;;;;;;;4977736;28;20205;-80
2024/01/15 10:15:39;;;;;;;7.80;4.85;;;;;;;;;;4978354;28;20736;-80
2024/01/15 10:18:07;;;;;;;3.83;2.65;;;;;;;;;;4978692;28;20291;-80
2024/01/15 10:20:34;;;;;;;2.10;1.65;;;;;;;;;;4978919;28;20205;-80
2024/01/15 10:23:02;;;;;;;2.97;2.67;;;;;;;;;;4980243;28;20287;-80
2024/01/15 10:25:30;;;;;;;3.20;2.15;;;;;;;;;;4977792;28;20256;-79
2024/01/15 10:28:05;;;;;;;2.22;1.98;;;;;;;;;;4980482;28;20870;-79
2024/01/15 10:30:34;;;;;;;1.70;1.60;;;;;;;;;;4980271;28;20319;-80
2024/01/15 10:33:02;;;;;;;3.22;2.63;;;;;;;;;;4978203;28;20614;-81
2024/01/15 10:35:31;;;;;;;3.28;2.97;;;;;;;;;;4982699;28;20588;-80
2024/01/15 10:37:59;;;;;;;2.45;1.75;;;;;;;;;;4979094;28;20204;-79
2024/01/15 10:40:26;;;;;;;2.92;2.03;;;;;;;;;;4979401;28;20295;-80
2024/01/15 10:42:54;;;;;;;2.03;1.63;;;;;;;;;;4979788;28;20674;-80
2024/01/15 10:45:24;;;;;;;1.15;1.15;;;;;;;;;;4979245;28;20232;-80
2024/01/15 10:47:52;;;;;;;1.63;1.52;;;;;;;;;;4979869;28;20267;-80
2024/01/15 10:50:20;;;;;;;3.58;1.90;;;;;;;;;;4985087;28;20411;-80
2024/01/15 10:52:47;;;;;;;1.75;1.65;;;;;;;;;;4981670;28;20211;-80
2024/01/15 10:55:15;;;;;;;2.22;2.03;;;;;;;;;;4985486;28;20224;-80
2024/01/15 10:57:43;;;;;;;2.47;2.28;;;;;;;;;;4979482;28;20274;-81
2024/01/15 11:00:14;;;;;;;1.60;1.45;;;;;;;;;;4982344;28;20283;-80
2024/01/15 11:02:44;;;;;;;1.33;1.23;;;;;;;;;;4982278;28;20254;-78
2024/01/15 11:05:12;;;;;;;2.15;1.83;;;;;;;;;;4980074;28;20228;-80
2024/01/15 11:07:41;;;;;;;2.20;1.92;;;;;;;;;;4986059;28;20214;-79
2024/01/15 11:10:12;;;;;;;1.85;1.75;;;;;;;;;;4983965;28;20233;-80
2024/01/15 11:12:43;;;;;;;4.13;2.42;;;;;;;;;;4985360;28;20219;-79
2024/01/15 11:15:11;;;;;;;1.50;1.40;;;;;;;;;;4975476;28;20687;-79
2024/01/15 11:20:39;;;;;;;1.58;1.48;;;;;;;;;;5112656;27;20615;-78
2024/01/15 11:23:07;;;;;;;1.70;1.60;;;;;;;;;;5109686;28;20222;-77
2024/01/15 11:25:38;;;;;;;2.22;1.75;;;;;;;;;;5104276;28;20299;-78
2024/01/15 11:28:06;;;;;;;1.33;1.20;;;;;;;;;;5098874;28;20257;-77
2024/01/15 11:30:36;;;;;;;1.50;1.40;;;;;;;;;;5096734;28;20192;-79
2024/01/15 11:33:07;;;;;;;1.13;1.10;;;;;;;;;;5104063;28;20192;-77
2024/01/15 11:35:53;;;;;;;1.30;1.20;;;;;;;;;;5109925;28;20216;-80
2024/01/15 11:38:29;;;;;;;1.55;1.42;;;;;;;;;;5107025;28;20204;-79
2024/01/15 11:40:57;;;;;;;1.63;1.52;;;;;;;;;;5103399;28;20194;-78
2024/01/15 11:43:24;;;;;;;1.50;1.35;;;;;;;;;;5116083;28;20223;-80
2024/01/15 11:45:54;;;;;;;1.92;1.30;;;;;;;;;;5109352;28;20302;-79
2024/01/15 11:48:23;;;;;;;1.52;1.42;;;;;;;;;;5111061;28;20191;-79
2024/01/15 11:50:54;;;;;;;2.15;1.73;;;;;;;;;;5108326;28;20203;-80
2024/01/15 11:53:44;;;;;;;1.25;1.17;;;;;;;;;;5120308;28;20196;-79
2024/01/15 11:56:17;;;;;;;1.30;1.20;;;;;;;;;;5119293;28;20286;-80
2024/01/15 11:58:45;;;;;;;1.40;1.30;;;;;;;;;;5119304;28;20587;-79
2024/01/15 12:01:12;;;;;;;1.38;1.25;;;;;;;;;;5111653;28;20627;-79
2024/01/15 12:03:40;;;;;;;2.85;1.40;;;;;;;;;;5120028;28;20280;-79
2024/01/15 12:06:10;;;;;;;1.60;1.30;;;;;;;;;;5115218;28;20243;-78
2024/01/15 12:08:38;;;;;;;1.10;1.10;;;;;;;;;;5116536;28;20570;-79
2024/01/15 12:11:10;;;;;;;1.70;1.60;;;;;;;;;;5118728;28;20287;-79
2024/01/15 12:13:38;;;;;;;1.50;1.00;;;;;;;;;;5108776;28;20290;-78
2024/01/15 12:16:06;;;;;;;1.98;1.40;;;;;;;;;;5116039;28;20291;-79
2024/01/15 12:18:33;;;;;;;1.45;1.35;;;;;;;;;;5115080;28;20243;-80
2024/01/15 12:21:01;;;;;;;2.13;1.20;;;;;;;;;;5117672;28;20222;-79
2024/01/15 12:23:29;;;;;;;1.50;1.40;;;;;;;;;;5109144;28;20719;-80
2024/01/15 12:25:57;;;;;;;1.48;1.17;;;;;;;;;;5117991;28;20327;-79
2024/01/15 12:28:25;;;;;;;2.15;1.50;;;;;;;;;;5115300;28;20666;-80
2024/01/15 12:30:52;;;;;;;2.08;1.80;;;;;;;;;;5095861;28;20275;-79
2024/01/15 12:33:21;;;;;;;3.00;1.55;;;;;;;;;;5102281;28;20263;-80
2024/01/15 12:35:48;;;;;;;1.60;1.50;;;;;;;;;;5102601;28;20220;-80
2024/01/15 12:38:16;;;;;;;2.83;1.00;;;;;;;;;;5094480;28;20222;-79
2024/01/15 12:40:47;;;;;;;1.60;1.48;;;;;;;;;;5088851;28;20252;-79
2024/01/15 12:43:14;;;;;;;2.45;1.27;;;;;;;;;;5088332;28;20235;-78
2024/01/15 12:45:43;;;;;;;1.85;1.17;;;;;;;;;;5093331;28;20292;-80
2024/01/15 12:48:10;;;;;;;1.70;1.60;;;;;;;;;;5094375;28;20200;-80
2024/01/15 12:50:38;;;;;;;1.42;1.33;;;;;;;;;;5101634;28;20838;-80
2024/01/15 12:53:06;;;;;;;3.15;1.75;;;;;;;;;;5100865;28;20238;-79
2024/01/15 12:55:34;;;;;;;2.35;1.30;;;;;;;;;;5095159;28;20233;-80
2024/01/15 12:58:03;;;;;;;1.75;1.30;;;;;;;;;;5098724;28;20200;-79
2024/01/15 13:00:30;;;;;;;2.20;1.90;;;;;;;;;;5097426;28;20304;-79
2024/01/15 13:03:00;;;;;;;1.60;1.42;;;;;;;;;;5093947;28;20291;-79
2024/01/15 13:05:28;;;;;;;2.75;2.50;;;;;;;;;;5100973;28;20226;-79
2024/01/15 13:07:55;;;;;;;4.63;2.60;;;;;;;;;;5100701;28;20204;-79
2024/01/15 13:10:24;;;;;;;1.65;1.30;;;;;;;;;;5098807;28;20260;-80
2024/01/15 13:12:52;;;;;;;2.00;1.40;;;;;;;;;;5086558;28;20291;-80
2024/01/15 13:15:21;;;;;;;4.05;1.75;;;;;;;;;;5095959;28;20227;-80
2024/01/15 13:17:48;;;;;;;1.90;1.60;;;;;;;;;;5099372;28;20204;-80
2024/01/15 13:20:16;;;;;;;3.63;1.20;;;;;;;;;;5098697;28;20611;-80
2024/01/15 13:22:44;;;;;;;3.33;1.67;;;;;;;;;;5098831;28;20251;-80
2024/01/15 13:25:11;;;;;;;1.95;1.52;;;;;;;;;;5098956;28;20679;-79
2024/01/15 13:27:39;;;;;;;1.13;1.00;;;;;;;;;;5098910;28;20205;-80
2024/01/15 13:30:08;;;;;;;7.50;1.58;;;;;;;;;;5097088;28;20282;-80
2024/01/15 13:32:36;;;;;;;1.35;1.10;;;;;;;;;;5094726;28;20235;-80
2024/01/15 13:35:07;;;;;;;2.80;1.50;;;;;;;;;;5098942;28;20224;-80
2024/01/15 13:37:37;;;;;;;2.72;1.65;;;;;;;;;;5094295;28;20254;-80
2024/01/15 13:40:07;;;;;;;1.88;1.48;;;;;;;;;;5098346;28;20220;-80
2024/01/15 13:42:35;;;;;;;1.40;1.30;;;;;;;;;;5098580;28;20200;-81
2024/01/15 13:45:02;;;;;;;1.63;1.38;;;;;;;;;;5093172;28;20230;-81
2024/01/15 13:47:30;;;;;;;2.50;1.77;;;;;;;;;;5098883;28;20208;-80
2024/01/15 13:50:00;;;;;;;2.83;1.83;;;;;;;;;;5095995;28;20196;-80
2024/01/15 13:52:27;;;;;;;3.70;1.80;;;;;;;;;;5098549;28;20211;-80
2024/01/15 13:54:55;;;;;;;2.63;1.75;;;;;;;;;;5085165;28;20306;-80
2024/01/15 13:57:22;;;;;;;2.75;2.22;;;;;;;;;;5099277;28;20291;-82
2024/01/15 13:59:50;;;;;;;2.65;1.75;;;;;;;;;;5097836;28;20204;-80
2024/01/15 14:02:17;;;;;;;2.38;1.60;;;;;;;;;;5098204;28;20298;-79
2024/01/15 14:04:45;;;;;;;3.15;1.75;;;;;;;;;;5095097;28;20231;-79
2024/01/15 14:07:13;;;;;;;1.88;1.60;;;;;;;;;;5092435;28;20707;-79
2024/01/15 14:09:41;;;;;;;2.80;1.85;;;;;;;;;;5095051;28;20661;-80
2024/01/15 14:12:09;;;;;;;5.47;1.88;;;;;;;;;;5095598;28;20200;-80
2024/01/15 14:14:37;;;;;;;1.88;1.52;;;;;;;;;;5092229;28;20255;-81
2024/01/15 14:17:05;;;;;;;2.63;2.42;;;;;;;;;;5086510;28;20197;-79
2024/01/15 14:19:33;;;;;;;4.32;2.00;;;;;;;;;;5078887;28;20674;-81
2024/01/15 14:22:00;;;;;;;1.88;1.77;;;;;;;;;;5087302;28;20220;-81
2024/01/15 14:24:29;;;;;;;3.38;2.10;;;;;;;;;;5085647;28;20418;-80
2024/01/15 14:26:56;;;;;;;2.22;2.03;;;;;;;;;;5077617;28;20283;-80
2024/01/15 14:29:25;;;;;;;2.40;2.20;;;;;;;;;;5090128;28;20228;-80
2024/01/15 14:31:53;;;;;;;2.10;1.40;;;;;;;;;;5094926;28;20196;-79
2024/01/15 14:34:23;;;;;;;2.50;2.00;;;;;;;;;;5091660;28;20228;-81
2024/01/15 14:36:53;;;;;;;1.88;1.65;;;;;;;;;;5093152;28;20239;-80
2024/01/15 14:39:21;;;;;;;2.45;2.25;;;;;;;;;;5091188;28;20658;-80
2024/01/15 14:41:49;;;;;;;1.55;1.20;;;;;;;;;;5092777;28;20230;-80
2024/01/15 14:44:17;;;;;;;2.33;1.63;;;;;;;;;;5089571;28;20308;-80
2024/01/15 14:46:45;;;;;;;2.80;2.13;;;;;;;;;;5092200;28;20618;-79
2024/01/15 14:49:13;;;;;;;4.30;2.80;;;;;;;;;;5098170;28;20224;-79
2024/01/15 14:51:41;;;;;;;2.72;2.53;;;;;;;;;;5095302;28;20625;-80